Terminal Aerodrome Forecast
Issued by NWS

Home | Current Version | Previous Version | Graphics & Text | Print | Product List | Glossary On
Versions: 1 2 3 4 5 6 7 8 9 10 11 12 13 14
195
FTUS42 KMHX 261724
TAFOAJ
TAF
KOAJ 261724Z 2618/2718 04008KT P6SM FEW250
     FM270000 00000KT P6SM SKC
     FM270800 00000KT 5SM BR SCT150
     FM271600 01005KT P6SM SCT060 BKN150
      AMD LTD TO CLD VIS AND WIND=

USA.gov is the U.S. government's official web portal to all federal, state and local government web resources and services.